sensor_id;sensor_type;location;lat;lon;timestamp;P1;durP1;ratioP1;P2;durP2;ratioP2
3831;SDS011;12460;42.662;23.288;2023-04-25T00:11:15;4.70;;;4.40;;
3831;SDS011;12460;42.662;23.288;2023-04-25T00:26:20;3.53;;;3.23;;
3831;SDS011;12460;42.662;23.288;2023-04-25T00:41:25;3.57;;;3.27;;
3831;SDS011;12460;42.662;23.288;2023-04-25T00:56:29;4.60;;;4.20;;
3831;SDS011;12460;42.662;23.288;2023-04-25T01:11:34;5.20;;;4.80;;
3831;SDS011;12460;42.662;23.288;2023-04-25T01:26:38;7.07;;;6.30;;
3831;SDS011;12460;42.662;23.288;2023-04-25T01:41:48;5.77;;;5.10;;
3831;SDS011;12460;42.662;23.288;2023-04-25T01:56:56;6.00;;;5.37;;
3831;SDS011;12460;42.662;23.288;2023-04-25T02:12:02;6.80;;;6.10;;
3831;SDS011;12460;42.662;23.288;2023-04-25T02:27:29;9.07;;;6.90;;
3831;SDS011;12460;42.662;23.288;2023-04-25T02:42:33;6.73;;;5.90;;
3831;SDS011;12460;42.662;23.288;2023-04-25T02:57:37;8.70;;;7.33;;
3831;SDS011;12460;42.662;23.288;2023-04-25T03:12:44;6.87;;;6.03;;
3831;SDS011;12460;42.662;23.288;2023-04-25T03:27:49;9.50;;;7.37;;
3831;SDS011;12460;42.662;23.288;2023-04-25T03:42:54;9.70;;;8.37;;
3831;SDS011;12460;42.662;23.288;2023-04-25T03:58:00;8.63;;;7.70;;
3831;SDS011;12460;42.662;23.288;2023-04-25T04:13:04;7.33;;;6.63;;
3831;SDS011;12460;42.662;23.288;2023-04-25T04:28:09;7.90;;;6.80;;
3831;SDS011;12460;42.662;23.288;2023-04-25T04:43:36;7.90;;;7.00;;
3831;SDS011;12460;42.662;23.288;2023-04-25T04:59:07;8.33;;;6.37;;
3831;SDS011;12460;42.662;23.288;2023-04-25T05:14:30;7.60;;;6.90;;
3831;SDS011;12460;42.662;23.288;2023-04-25T05:29:42;10.33;;;7.80;;
3831;SDS011;12460;42.662;23.288;2023-04-25T05:45:06;10.43;;;8.80;;
3831;SDS011;12460;42.662;23.288;2023-04-25T06:00:26;10.47;;;8.50;;
3831;SDS011;12460;42.662;23.288;2023-04-25T06:15:32;9.80;;;8.47;;
3831;SDS011;12460;42.662;23.288;2023-04-25T06:30:37;11.67;;;10.47;;
3831;SDS011;12460;42.662;23.288;2023-04-25T06:45:45;11.40;;;8.70;;
3831;SDS011;12460;42.662;23.288;2023-04-25T07:00:51;8.87;;;7.97;;
3831;SDS011;12460;42.662;23.288;2023-04-25T07:15:58;11.30;;;7.77;;
3831;SDS011;12460;42.662;23.288;2023-04-25T07:31:05;10.33;;;8.60;;
3831;SDS011;12460;42.662;23.288;2023-04-25T07:46:09;8.77;;;7.87;;
3831;SDS011;12460;42.662;23.288;2023-04-25T08:01:14;8.57;;;7.47;;
3831;SDS011;12460;42.662;23.288;2023-04-25T08:16:30;9.17;;;7.57;;
3831;SDS011;12460;42.662;23.288;2023-04-25T08:31:36;7.90;;;6.67;;
3831;SDS011;12460;42.662;23.288;2023-04-25T08:46:42;5.93;;;5.43;;
3831;SDS011;12460;42.662;23.288;2023-04-25T09:02:02;5.63;;;5.13;;
3831;SDS011;12460;42.662;23.288;2023-04-25T09:17:07;7.90;;;7.07;;
3831;SDS011;12460;42.662;23.288;2023-04-25T09:32:24;3.53;;;3.10;;
3831;SDS011;12460;42.662;23.288;2023-04-25T09:47:31;3.50;;;3.30;;
3831;SDS011;12460;42.662;23.288;2023-04-25T10:02:42;2.50;;;2.40;;
3831;SDS011;12460;42.662;23.288;2023-04-25T10:18:11;2.40;;;1.70;;
3831;SDS011;12460;42.662;23.288;2023-04-25T10:33:17;2.10;;;1.90;;
3831;SDS011;12460;42.662;23.288;2023-04-25T10:48:25;2.43;;;2.20;;
3831;SDS011;12460;42.662;23.288;2023-04-25T11:03:30;2.87;;;2.20;;
3831;SDS011;12460;42.662;23.288;2023-04-25T11:18:35;2.80;;;2.60;;
3831;SDS011;12460;42.662;23.288;2023-04-25T11:33:41;1.63;;;1.53;;
3831;SDS011;12460;42.662;23.288;2023-04-25T11:48:47;3.80;;;1.70;;
3831;SDS011;12460;42.662;23.288;2023-04-25T12:03:54;1.77;;;1.60;;
3831;SDS011;12460;42.662;23.288;2023-04-25T12:18:58;2.70;;;2.13;;
3831;SDS011;12460;42.662;23.288;2023-04-25T12:34:03;2.47;;;2.27;;
3831;SDS011;12460;42.662;23.288;2023-04-25T12:49:08;1.80;;;1.70;;
3831;SDS011;12460;42.662;23.288;2023-04-25T13:04:20;1.50;;;1.40;;
3831;SDS011;12460;42.662;23.288;2023-04-25T13:19:24;3.30;;;3.00;;
3831;SDS011;12460;42.662;23.288;2023-04-25T13:34:31;4.00;;;2.80;;
3831;SDS011;12460;42.662;23.288;2023-04-25T13:49:35;2.10;;;2.00;;
3831;SDS011;12460;42.662;23.288;2023-04-25T14:04:40;2.10;;;2.00;;
3831;SDS011;12460;42.662;23.288;2023-04-25T14:19:44;2.50;;;2.30;;
3831;SDS011;12460;42.662;23.288;2023-04-25T14:34:49;2.20;;;2.10;;
3831;SDS011;12460;42.662;23.288;2023-04-25T14:49:55;2.40;;;2.20;;
3831;SDS011;12460;42.662;23.288;2023-04-25T15:05:00;2.97;;;2.70;;
3831;SDS011;12460;42.662;23.288;2023-04-25T15:20:08;3.37;;;3.07;;
3831;SDS011;12460;42.662;23.288;2023-04-25T15:35:13;4.03;;;3.03;;
3831;SDS011;12460;42.662;23.288;2023-04-25T15:50:17;5.33;;;4.37;;
3831;SDS011;12460;42.662;23.288;2023-04-25T16:05:22;5.50;;;5.00;;
3831;SDS011;12460;42.662;23.288;2023-04-25T16:20:29;3.03;;;2.70;;
3831;SDS011;12460;42.662;23.288;2023-04-25T16:35:33;3.20;;;2.90;;
3831;SDS011;12460;42.662;23.288;2023-04-25T16:50:37;5.20;;;4.17;;
3831;SDS011;12460;42.662;23.288;2023-04-25T17:05:42;6.40;;;4.83;;
3831;SDS011;12460;42.662;23.288;2023-04-25T17:20:47;4.50;;;4.10;;
3831;SDS011;12460;42.662;23.288;2023-04-25T17:35:52;6.90;;;6.20;;
3831;SDS011;12460;42.662;23.288;2023-04-25T17:50:57;5.47;;;4.43;;
3831;SDS011;12460;42.662;23.288;2023-04-25T18:06:02;4.73;;;4.20;;
3831;SDS011;12460;42.662;23.288;2023-04-25T18:21:07;3.10;;;2.90;;
3831;SDS011;12460;42.662;23.288;2023-04-25T18:36:12;3.00;;;2.70;;
3831;SDS011;12460;42.662;23.288;2023-04-25T18:51:17;2.93;;;2.70;;
3831;SDS011;12460;42.662;23.288;2023-04-25T19:06:25;2.73;;;2.47;;
3831;SDS011;12460;42.662;23.288;2023-04-25T19:21:32;3.80;;;2.70;;
3831;SDS011;12460;42.662;23.288;2023-04-25T19:36:37;3.60;;;3.30;;
3831;SDS011;12460;42.662;23.288;2023-04-25T19:51:42;2.70;;;2.50;;
3831;SDS011;12460;42.662;23.288;2023-04-25T20:06:48;4.97;;;3.87;;
3831;SDS011;12460;42.662;23.288;2023-04-25T20:21:53;1.60;;;1.50;;
3831;SDS011;12460;42.662;23.288;2023-04-25T20:36:58;2.20;;;2.10;;
3831;SDS011;12460;42.662;23.288;2023-04-25T20:52:05;2.67;;;2.07;;
3831;SDS011;12460;42.662;23.288;2023-04-25T21:07:09;2.10;;;2.00;;
3831;SDS011;12460;42.662;23.288;2023-04-25T21:22:18;3.47;;;2.10;;
3831;SDS011;12460;42.662;23.288;2023-04-25T21:37:22;6.40;;;3.10;;
3831;SDS011;12460;42.662;23.288;2023-04-25T21:52:27;2.97;;;2.77;;
3831;SDS011;12460;42.662;23.288;2023-04-25T22:07:31;3.63;;;3.33;;
3831;SDS011;12460;42.662;23.288;2023-04-25T22:22:36;4.40;;;4.00;;
3831;SDS011;12460;42.662;23.288;2023-04-25T22:37:41;3.90;;;3.60;;
3831;SDS011;12460;42.662;23.288;2023-04-25T22:52:45;4.30;;;3.90;;
3831;SDS011;12460;42.662;23.288;2023-04-25T23:07:51;4.30;;;3.90;;
3831;SDS011;12460;42.662;23.288;2023-04-25T23:22:55;5.60;;;5.10;;
3831;SDS011;12460;42.662;23.288;2023-04-25T23:38:00;6.30;;;5.50;;
3831;SDS011;12460;42.662;23.288;2023-04-25T23:53:05;5.00;;;4.53;;
